createdAt,value
2018-06-30T00:01:37.675Z,101415.22
2018-06-30T00:04:06.056Z,101414.23
2018-06-30T00:06:34.390Z,101411.86
2018-06-30T00:09:02.721Z,101413.66
2018-06-30T00:11:31.046Z,101411.31
2018-06-30T00:13:59.383Z,101413.09
2018-06-30T00:16:27.786Z,101415.54
2018-06-30T00:18:56.129Z,101417.61
2018-06-30T00:21:24.473Z,101422.44
2018-06-30T00:23:52.856Z,101421.39
2018-06-30T00:26:21.189Z,101421.27
2018-06-30T00:28:49.527Z,101423.23
2018-06-30T00:31:17.853Z,101430.77
2018-06-30T00:33:46.200Z,101420.42
2018-06-30T00:36:14.550Z,101425.81
2018-06-30T00:38:42.885Z,101428.64
2018-06-30T00:41:11.202Z,101425.62
2018-06-30T00:43:39.530Z,101424.45
2018-06-30T00:46:07.838Z,101434.03
2018-06-30T00:48:36.243Z,101431.67
2018-06-30T00:51:04.560Z,101436.70
2018-06-30T00:53:32.895Z,101445.15
2018-06-30T00:56:01.239Z,101437.99
2018-06-30T00:58:29.607Z,101443.78
2018-06-30T01:00:58.024Z,101443.12
2018-06-30T01:03:26.408Z,101445.66
2018-06-30T01:05:54.746Z,101446.23
2018-06-30T01:08:23.101Z,101447.84
2018-06-30T01:10:51.416Z,101440.98
2018-06-30T01:13:19.752Z,101449.12
2018-06-30T01:15:48.089Z,101450.16
2018-06-30T01:18:16.409Z,101449.05
2018-06-30T01:20:44.738Z,101457.91
2018-06-30T01:23:13.084Z,101446.95
2018-06-30T01:25:41.430Z,101460.63
2018-06-30T01:28:09.774Z,101461.98
2018-06-30T01:30:38.135Z,101465.57
2018-06-30T01:33:06.751Z,101468.80
2018-06-30T01:35:35.130Z,101470.49
2018-06-30T01:38:03.482Z,101474.37
2018-06-30T01:40:31.823Z,101466.59
2018-06-30T01:43:00.156Z,101469.45
2018-06-30T01:45:28.479Z,101469.45
2018-06-30T01:47:56.816Z,101465.16
2018-06-30T01:50:25.187Z,101471.30
2018-06-30T01:52:53.524Z,101471.19
2018-06-30T01:55:27.466Z,101467.37
2018-06-30T01:57:55.817Z,101475.93
2018-06-30T02:00:24.146Z,101478.88
2018-06-30T02:02:52.466Z,101482.92
2018-06-30T02:05:20.794Z,101487.66
2018-06-30T02:07:49.240Z,101486.28
2018-06-30T02:10:17.579Z,101490.98
2018-06-30T02:12:45.912Z,101485.58
2018-06-30T02:15:14.255Z,101492.31
2018-06-30T02:17:42.583Z,101494.24
2018-06-30T02:20:10.919Z,101500.01
2018-06-30T02:22:39.254Z,101493.39
2018-06-30T02:25:07.579Z,101496.44
2018-06-30T02:27:35.923Z,101495.45
2018-06-30T02:30:04.818Z,101499.55
2018-06-30T02:32:33.147Z,101508.81
2018-06-30T02:35:01.603Z,101503.97
2018-06-30T02:37:29.938Z,101508.81
2018-06-30T02:39:58.304Z,101506.64
2018-06-30T02:42:26.633Z,101511.48
2018-06-30T02:44:55.030Z,101512.91
2018-06-30T02:47:23.465Z,101514.70
2018-06-30T02:49:51.833Z,101521.28
2018-06-30T02:52:20.215Z,101521.32
2018-06-30T02:54:48.545Z,101525.88
2018-06-30T02:57:16.949Z,101519.92
2018-06-30T02:59:45.282Z,101526.58
2018-06-30T03:02:13.592Z,101532.91
2018-06-30T03:04:41.943Z,101529.25
2018-06-30T03:07:10.271Z,101536.61
2018-06-30T03:09:38.787Z,101532.52
2018-06-30T03:12:07.161Z,101537.44
2018-06-30T03:14:35.501Z,101533.78
2018-06-30T03:17:03.882Z,101545.09
2018-06-30T03:19:32.216Z,101542.02
2018-06-30T03:22:00.520Z,101547.33
2018-06-30T03:24:28.947Z,101550.94
2018-06-30T03:26:57.325Z,101550.94
2018-06-30T03:29:25.627Z,101544.09
2018-06-30T03:31:53.936Z,101549.89
2018-06-30T03:34:22.316Z,101544.36
2018-06-30T03:36:50.664Z,101553.46
2018-06-30T03:39:18.971Z,101545.01
2018-06-30T03:41:47.320Z,101546.45
2018-06-30T03:44:15.670Z,101546.19
2018-06-30T03:46:44.020Z,101546.19
2018-06-30T03:49:12.340Z,101550.58
2018-06-30T03:51:40.658Z,101552.46
2018-06-30T03:54:08.993Z,101552.11
2018-06-30T03:56:37.330Z,101554.16
2018-06-30T03:59:05.848Z,101557.20
2018-06-30T04:01:34.192Z,101566.70
2018-06-30T04:04:02.539Z,101561.43
2018-06-30T04:06:30.908Z,101567.48
2018-06-30T04:08:59.216Z,101569.31
2018-06-30T04:11:27.563Z,101571.45
2018-06-30T04:13:55.937Z,101575.70
2018-06-30T04:16:24.251Z,101579.77
2018-06-30T04:18:52.567Z,101582.98
2018-06-30T04:21:20.879Z,101578.02
2018-06-30T04:23:49.196Z,101583.94
2018-06-30T04:26:17.606Z,101582.98
2018-06-30T04:28:45.934Z,101581.58
2018-06-30T04:31:14.272Z,101584.58
2018-06-30T04:33:42.609Z,101590.25
2018-06-30T04:36:10.984Z,101584.84
2018-06-30T04:38:39.320Z,101588.67
2018-06-30T04:41:07.629Z,101591.45
2018-06-30T04:43:35.979Z,101593.32
2018-06-30T04:46:04.333Z,101587.74
2018-06-30T04:48:32.680Z,101592.22
2018-06-30T04:51:01.072Z,101592.31
2018-06-30T04:53:29.415Z,101593.77
2018-06-30T04:55:57.774Z,101591.91
2018-06-30T04:58:26.945Z,101604.22
2018-06-30T05:00:55.289Z,101601.28
2018-06-30T05:03:23.628Z,101604.63
2018-06-30T05:05:51.976Z,101604.44
2018-06-30T05:08:20.321Z,101605.02
2018-06-30T05:10:48.635Z,101603.38
2018-06-30T05:13:16.971Z,101606.19
2018-06-30T05:15:45.319Z,101606.20
2018-06-30T05:18:13.635Z,101602.48
2018-06-30T05:20:41.982Z,101606.79
2018-06-30T05:23:10.356Z,101601.92
2018-06-30T05:25:38.693Z,101610.28
2018-06-30T05:28:07.035Z,101610.36
2018-06-30T05:30:35.390Z,101611.71
2018-06-30T05:33:03.764Z,101607.90
2018-06-30T05:35:32.119Z,101611.66
2018-06-30T05:38:00.497Z,101618.30
2018-06-30T05:40:28.841Z,101613.72
2018-06-30T05:42:57.399Z,101613.93
2018-06-30T05:45:25.737Z,101617.99
2018-06-30T05:47:54.071Z,101615.68
2018-06-30T05:50:22.429Z,101620.33
2018-06-30T05:52:50.797Z,101620.55
2018-06-30T05:55:19.116Z,101618.22
2018-06-30T05:57:47.620Z,101620.71
2018-06-30T06:00:15.944Z,101623.41
2018-06-30T06:02:44.272Z,101628.57
2018-06-30T06:05:12.598Z,101622.67
2018-06-30T06:07:40.928Z,101633.27
2018-06-30T06:10:09.258Z,101634.39
2018-06-30T06:12:37.617Z,101638.59
2018-06-30T06:15:05.980Z,101622.48
2018-06-30T06:17:34.412Z,101634.86
2018-06-30T06:20:02.758Z,101625.48
2018-06-30T06:22:31.100Z,101624.30
2018-06-30T06:24:59.428Z,101619.25
2018-06-30T06:27:27.805Z,101624.52
2018-06-30T06:29:56.104Z,101615.58
2018-06-30T06:32:24.449Z,101624.73
2018-06-30T06:34:52.808Z,101626.59
2018-06-30T06:37:21.234Z,101622.32
2018-06-30T06:39:49.598Z,101622.27
2018-06-30T06:42:17.920Z,101620.27
2018-06-30T06:44:46.262Z,101620.97
2018-06-30T06:47:14.705Z,101620.06
2018-06-30T06:49:43.049Z,101617.24
2018-06-30T06:52:11.395Z,101621.30
2018-06-30T06:54:39.737Z,101632.02
2018-06-30T06:57:08.080Z,101621.99
2018-06-30T06:59:36.451Z,101612.03
2018-06-30T07:02:04.808Z,101617.30
2018-06-30T07:04:33.152Z,101617.03
2018-06-30T07:07:01.587Z,101616.06
2018-06-30T07:09:29.932Z,101612.55
2018-06-30T07:11:58.275Z,101613.14
2018-06-30T07:14:26.604Z,101610.64
2018-06-30T07:16:54.941Z,101615.33
2018-06-30T07:19:23.269Z,101617.41
2018-06-30T07:21:51.601Z,101614.23
2018-06-30T07:24:19.915Z,101609.73
2018-06-30T07:26:48.254Z,101606.23
2018-06-30T07:29:16.606Z,101610.19
2018-06-30T07:31:44.935Z,101605.73
2018-06-30T07:34:13.291Z,101605.64
2018-06-30T07:36:41.655Z,101599.19
2018-06-30T07:39:10.416Z,101600.86
2018-06-30T07:41:39.822Z,101599.73
2018-06-30T07:44:08.707Z,101608.06
2018-06-30T07:46:37.063Z,101597.19
2018-06-30T07:49:05.546Z,101609.77
2018-06-30T07:51:33.911Z,101612.13
2018-06-30T07:54:02.238Z,101617.06
2018-06-30T07:56:30.591Z,101606.33
2018-06-30T07:58:58.930Z,101593.27
2018-06-30T08:01:27.239Z,101604.25
2018-06-30T08:03:55.547Z,101615.59
2018-06-30T08:06:23.899Z,101608.01
2018-06-30T08:08:52.258Z,101608.67
2018-06-30T08:11:20.587Z,101610.00
2018-06-30T08:13:48.966Z,101597.45
2018-06-30T08:16:17.310Z,101603.64
2018-06-30T08:18:45.617Z,101598.47
2018-06-30T08:21:14.067Z,101604.33
2018-06-30T08:23:42.360Z,101600.53
2018-06-30T08:26:10.708Z,101600.84
2018-06-30T08:28:39.133Z,101608.30
2018-06-30T08:31:07.467Z,101613.81
2018-06-30T08:33:35.827Z,101601.36
2018-06-30T08:36:04.175Z,101603.20
2018-06-30T08:38:32.563Z,101606.84
2018-06-30T08:41:01.000Z,101603.13
2018-06-30T08:43:29.346Z,101612.31
2018-06-30T08:45:57.743Z,101612.11
2018-06-30T08:48:26.093Z,101610.95
2018-06-30T08:50:54.414Z,101616.66
2018-06-30T08:53:22.913Z,101618.22
2018-06-30T08:55:51.235Z,101618.55
2018-06-30T08:58:19.584Z,101627.01
2018-06-30T09:00:47.951Z,101611.27
2018-06-30T09:03:16.449Z,101610.45
2018-06-30T09:05:44.828Z,101601.39
2018-06-30T09:08:13.195Z,101609.58
2018-06-30T09:10:41.549Z,101605.05
2018-06-30T09:13:09.883Z,101604.44
2018-06-30T09:15:38.267Z,101608.61
2018-06-30T09:18:06.896Z,101624.78
2018-06-30T09:20:35.259Z,101621.64
2018-06-30T09:23:03.576Z,101621.47
2018-06-30T09:25:31.924Z,101615.81
2018-06-30T09:28:00.313Z,101613.08
2018-06-30T09:30:28.687Z,101617.24
2018-06-30T09:32:57.032Z,101609.53
2018-06-30T09:35:25.426Z,101618.38
2018-06-30T09:37:53.786Z,101617.32
2018-06-30T09:40:22.162Z,101618.15
2018-06-30T09:42:51.193Z,101611.61
2018-06-30T09:45:19.508Z,101606.93
2018-06-30T09:47:48.527Z,101605.53
2018-06-30T09:50:16.942Z,101602.81
2018-06-30T09:52:45.324Z,101610.69
2018-06-30T09:55:13.672Z,101605.92
2018-06-30T09:57:42.044Z,101611.22
2018-06-30T10:00:10.629Z,101613.69
2018-06-30T10:02:38.985Z,101609.58
2018-06-30T10:05:07.362Z,101597.09
2018-06-30T10:07:35.793Z,101594.67
2018-06-30T10:10:04.390Z,101589.92
2018-06-30T10:12:32.728Z,101590.13
2018-06-30T10:15:01.076Z,101584.94
2018-06-30T10:17:29.460Z,101593.61
2018-06-30T10:19:57.792Z,101595.17
2018-06-30T10:23:50.523Z,101588.83
2018-06-30T10:26:18.864Z,101590.13
2018-06-30T10:28:47.225Z,101588.75
2018-06-30T10:31:15.613Z,101579.01
2018-06-30T10:33:43.936Z,101575.14
2018-06-30T10:36:12.312Z,101581.39
2018-06-30T10:38:40.670Z,101582.00
2018-06-30T10:41:09.121Z,101588.72
2018-06-30T10:43:39.239Z,101580.45
2018-06-30T10:46:07.671Z,101580.70
2018-06-30T10:48:36.066Z,101579.81
2018-06-30T10:51:04.407Z,101571.66
2018-06-30T10:53:32.838Z,101561.25
2018-06-30T10:56:01.185Z,101567.27
2018-06-30T10:58:29.929Z,101573.11
2018-06-30T11:00:58.256Z,101562.10
2018-06-30T11:03:26.586Z,101562.24
2018-06-30T11:05:55.020Z,101577.66
2018-06-30T11:08:23.382Z,101562.45
2018-06-30T11:10:51.736Z,101570.50
2018-06-30T11:13:20.082Z,101569.19
2018-06-30T11:15:48.500Z,101562.32
2018-06-30T11:18:16.874Z,101560.65
2018-06-30T11:20:45.222Z,101557.53
2018-06-30T11:23:13.593Z,101569.59
2018-06-30T11:25:41.963Z,101558.09
2018-06-30T11:28:10.295Z,101555.34
2018-06-30T11:30:38.643Z,101553.13
2018-06-30T11:33:07.100Z,101558.20
2018-06-30T11:35:35.480Z,101554.44
2018-06-30T11:38:03.871Z,101551.70
2018-06-30T11:40:32.296Z,101551.81
2018-06-30T11:43:00.660Z,101564.53
2018-06-30T11:45:29.010Z,101555.37
2018-06-30T11:47:57.361Z,101557.55
2018-06-30T11:50:25.800Z,101547.18
2018-06-30T11:52:54.112Z,101549.65
2018-06-30T11:55:22.500Z,101545.36
2018-06-30T11:57:50.894Z,101550.15
2018-06-30T12:00:19.248Z,101540.77
2018-06-30T12:02:47.590Z,101542.45
2018-06-30T12:05:15.926Z,101541.73
2018-06-30T12:07:44.285Z,101528.03
2018-06-30T12:10:12.628Z,101544.02
2018-06-30T12:12:41.042Z,101538.49
2018-06-30T12:15:09.461Z,101537.05
2018-06-30T12:17:37.827Z,101543.52
2018-06-30T12:20:06.348Z,101540.85
2018-06-30T12:22:34.703Z,101547.16
2018-06-30T12:25:03.062Z,101544.45
2018-06-30T12:27:31.421Z,101546.42
2018-06-30T12:29:59.798Z,101544.09
2018-06-30T12:32:28.129Z,101546.70
2018-06-30T12:34:56.509Z,101553.70
2018-06-30T12:37:24.830Z,101557.69
2018-06-30T12:39:53.178Z,101551.84
2018-06-30T12:42:21.529Z,101552.10
2018-06-30T12:44:49.928Z,101544.38
2018-06-30T12:47:18.273Z,101550.24
2018-06-30T12:49:46.649Z,101545.73
2018-06-30T12:52:14.991Z,101543.80
2018-06-30T12:54:43.411Z,101537.76
2018-06-30T12:57:11.718Z,101542.73
2018-06-30T12:59:40.074Z,101530.92
2018-06-30T13:02:08.548Z,101542.54
2018-06-30T13:04:36.923Z,101539.77
2018-06-30T13:07:05.623Z,101527.31
2018-06-30T13:09:33.976Z,101529.42
2018-06-30T13:12:02.329Z,101531.93
2018-06-30T13:14:30.660Z,101522.85
2018-06-30T13:16:58.990Z,101527.33
2018-06-30T13:19:27.336Z,101527.82
2018-06-30T13:21:56.004Z,101524.47
2018-06-30T13:24:24.343Z,101522.11
2018-06-30T13:26:52.689Z,101515.40
2018-06-30T13:29:21.067Z,101513.41
2018-06-30T13:31:49.386Z,101512.39
2018-06-30T13:34:17.758Z,101510.91
2018-06-30T13:36:46.137Z,101522.15
2018-06-30T13:39:15.612Z,101513.77
2018-06-30T13:41:44.207Z,101528.67
2018-06-30T13:44:13.304Z,101516.39
2018-06-30T13:46:41.667Z,101515.27
2018-06-30T13:49:10.004Z,101511.53
2018-06-30T13:51:38.352Z,101510.03
2018-06-30T13:54:07.518Z,101517.51
2018-06-30T13:56:35.861Z,101515.25
2018-06-30T13:59:04.230Z,101504.42
2018-06-30T14:01:32.591Z,101507.77
2018-06-30T14:04:00.908Z,101509.27
2018-06-30T14:06:29.271Z,101496.73
2018-06-30T14:08:57.829Z,101500.73
2018-06-30T14:11:26.435Z,101495.63
2018-06-30T14:13:54.829Z,101492.27
2018-06-30T14:16:23.211Z,101490.05
2018-06-30T14:18:51.550Z,101485.32
2018-06-30T14:21:19.896Z,101488.20
2018-06-30T14:23:48.247Z,101501.72
2018-06-30T14:26:16.588Z,101504.20
2018-06-30T14:28:44.951Z,101503.82
2018-06-30T14:31:13.277Z,101504.24
2018-06-30T14:33:41.604Z,101503.41
2018-06-30T14:36:10.067Z,101504.17
2018-06-30T14:38:38.408Z,101497.36
2018-06-30T14:41:06.757Z,101496.58
2018-06-30T14:43:35.274Z,101503.64
2018-06-30T14:46:04.319Z,101496.58
2018-06-30T14:48:36.258Z,101487.98
2018-06-30T14:51:04.612Z,101490.11
2018-06-30T14:53:32.984Z,101486.88
2018-06-30T14:56:01.369Z,101486.02
2018-06-30T14:58:29.741Z,101496.20
2018-06-30T15:00:58.124Z,101498.15
2018-06-30T15:03:26.501Z,101502.74
2018-06-30T15:05:54.844Z,101497.65
2018-06-30T15:08:23.194Z,101495.75
2018-06-30T15:10:51.815Z,101484.19
2018-06-30T15:13:20.165Z,101484.98
2018-06-30T15:15:48.532Z,101488.22
2018-06-30T15:18:16.875Z,101482.16
2018-06-30T15:20:45.261Z,101485.28
2018-06-30T15:23:13.619Z,101484.14
2018-06-30T15:25:42.014Z,101476.58
2018-06-30T15:28:10.397Z,101469.62
2018-06-30T15:30:39.491Z,101463.30
2018-06-30T15:33:07.905Z,101473.27
2018-06-30T15:35:36.283Z,101470.16
2018-06-30T15:38:04.636Z,101471.02
2018-06-30T15:40:33.005Z,101476.34
2018-06-30T15:43:01.368Z,101473.75
2018-06-30T15:45:30.109Z,101477.97
2018-06-30T15:47:58.453Z,101482.93
2018-06-30T15:50:26.835Z,101486.27
2018-06-30T15:52:55.179Z,101492.95
2018-06-30T15:55:23.569Z,101485.45
2018-06-30T15:57:51.993Z,101489.11
2018-06-30T16:00:20.938Z,101487.61
2018-06-30T16:02:49.295Z,101486.64
2018-06-30T16:05:17.668Z,101482.50
2018-06-30T16:07:46.034Z,101478.91
2018-06-30T16:10:14.413Z,101488.55
2018-06-30T16:12:42.769Z,101476.39
2018-06-30T16:15:11.135Z,101480.14
2018-06-30T16:17:39.517Z,101471.94
2018-06-30T16:20:07.892Z,101473.81
2018-06-30T16:22:36.260Z,101470.84
2018-06-30T16:25:04.995Z,101472.31
2018-06-30T16:27:33.339Z,101473.16
2018-06-30T16:30:01.718Z,101472.52
2018-06-30T16:32:30.130Z,101472.75
2018-06-30T16:34:58.509Z,101474.03
2018-06-30T16:37:26.856Z,101474.03
2018-06-30T16:39:55.199Z,101472.03
2018-06-30T16:42:23.550Z,101461.97
2018-06-30T16:44:52.021Z,101472.02
2018-06-30T16:47:20.373Z,101475.04
2018-06-30T16:49:48.740Z,101472.02
2018-06-30T16:52:17.065Z,101480.66
2018-06-30T16:54:45.396Z,101481.02
2018-06-30T16:57:13.753Z,101478.79
2018-06-30T16:59:42.134Z,101477.25
2018-06-30T17:02:10.512Z,101468.27
2018-06-30T17:04:38.860Z,101473.08
2018-06-30T17:07:07.199Z,101472.21
2018-06-30T17:09:35.544Z,101466.41
2018-06-30T17:12:03.891Z,101470.84
2018-06-30T17:14:32.230Z,101467.63
2018-06-30T17:17:01.178Z,101464.67
2018-06-30T17:19:29.522Z,101461.43
2018-06-30T17:21:57.849Z,101469.34
2018-06-30T17:24:26.200Z,101469.83
2018-06-30T17:26:54.544Z,101466.83
2018-06-30T17:29:22.986Z,101476.28
2018-06-30T17:31:51.334Z,101479.23
2018-06-30T17:34:19.668Z,101477.27
2018-06-30T17:36:48.020Z,101479.84
2018-06-30T17:39:16.369Z,101473.99
2018-06-30T17:41:44.699Z,101484.50
2018-06-30T17:44:13.095Z,101480.75
2018-06-30T17:46:41.449Z,101483.08
2018-06-30T17:49:09.822Z,101491.04
2018-06-30T17:51:38.199Z,101491.88
2018-06-30T17:54:07.157Z,101495.59
2018-06-30T17:56:35.652Z,101498.32
2018-06-30T17:59:04.252Z,101500.06
2018-06-30T18:01:32.684Z,101494.45
2018-06-30T18:04:01.024Z,101494.45
2018-06-30T18:06:29.386Z,101502.22
2018-06-30T18:08:57.737Z,101498.13
2018-06-30T18:11:26.102Z,101499.50
2018-06-30T18:13:54.818Z,101499.59
2018-06-30T18:16:23.208Z,101502.91
2018-06-30T18:18:51.546Z,101505.68
2018-06-30T18:21:19.906Z,101514.02
2018-06-30T18:23:48.276Z,101512.90
2018-06-30T18:26:16.660Z,101512.51
2018-06-30T18:28:44.975Z,101519.37
2018-06-30T18:31:13.361Z,101520.73
2018-06-30T18:33:41.837Z,101517.34
2018-06-30T18:36:10.216Z,101512.48
2018-06-30T18:38:38.852Z,101521.84
2018-06-30T18:41:07.231Z,101517.23
2018-06-30T18:43:35.602Z,101521.02
2018-06-30T18:46:03.967Z,101521.40
2018-06-30T18:48:32.507Z,101524.48
2018-06-30T18:51:00.852Z,101523.73
2018-06-30T18:53:29.177Z,101523.95
2018-06-30T18:55:57.556Z,101531.89
2018-06-30T18:58:25.929Z,101531.98
2018-06-30T19:00:54.284Z,101537.86
2018-06-30T19:03:23.118Z,101540.98
2018-06-30T19:05:51.978Z,101553.49
2018-06-30T19:08:20.311Z,101548.50
2018-06-30T19:10:48.958Z,101552.41
2018-06-30T19:13:17.290Z,101550.62
2018-06-30T19:15:45.614Z,101555.20
2018-06-30T19:18:13.961Z,101552.22
2018-06-30T19:20:42.297Z,101557.41
2018-06-30T19:23:10.614Z,101552.02
2018-06-30T19:25:38.985Z,101563.28
2018-06-30T19:28:07.844Z,101568.16
2018-06-30T19:30:36.223Z,101571.45
2018-06-30T19:33:04.634Z,101576.71
2018-06-30T19:35:33.012Z,101567.42
2018-06-30T19:38:01.433Z,101576.94
2018-06-30T19:40:29.812Z,101579.17
2018-06-30T19:42:58.226Z,101582.56
2018-06-30T19:45:26.562Z,101582.00
2018-06-30T19:47:54.980Z,101584.80
2018-06-30T19:50:23.329Z,101590.94
2018-06-30T19:52:51.765Z,101591.21
2018-06-30T19:55:20.043Z,101591.72
2018-06-30T19:57:48.396Z,101591.72
2018-06-30T20:00:16.746Z,101595.39
2018-06-30T20:02:45.122Z,101591.90
2018-06-30T20:05:13.604Z,101596.16
2018-06-30T20:07:47.308Z,101596.76
2018-06-30T20:10:15.823Z,101597.13
2018-06-30T20:12:44.171Z,101597.03
2018-06-30T20:15:12.494Z,101601.60
2018-06-30T20:17:40.850Z,101603.87
2018-06-30T20:20:09.745Z,101598.83
2018-06-30T20:22:38.091Z,101603.48
2018-06-30T20:25:06.475Z,101604.84
2018-06-30T20:27:34.859Z,101604.33
2018-06-30T20:30:03.363Z,101602.10
2018-06-30T20:32:31.675Z,101607.91
2018-06-30T20:35:00.229Z,101613.94
2018-06-30T20:37:28.671Z,101602.38
2018-06-30T20:39:57.195Z,101608.09
2018-06-30T20:42:25.672Z,101607.30
2018-06-30T20:44:54.033Z,101606.25
2018-06-30T20:47:22.401Z,101616.80
2018-06-30T20:49:50.753Z,101616.22
2018-06-30T20:52:19.096Z,101616.22
2018-06-30T20:54:47.719Z,101626.45
2018-06-30T20:57:16.064Z,101623.25
2018-06-30T20:59:44.427Z,101626.63
2018-06-30T21:02:12.783Z,101623.53
2018-06-30T21:04:41.136Z,101621.47
2018-06-30T21:07:09.538Z,101628.11
2018-06-30T21:09:37.878Z,101626.37
2018-06-30T21:12:06.222Z,101635.45
2018-06-30T21:14:34.533Z,101632.30
2018-06-30T21:17:02.888Z,101633.66
2018-06-30T21:19:31.278Z,101632.58
2018-06-30T21:21:59.614Z,101636.75
2018-06-30T21:24:27.941Z,101635.17
2018-06-30T21:26:56.291Z,101642.41
2018-06-30T21:29:24.603Z,101639.70
2018-06-30T21:31:52.983Z,101642.16
2018-06-30T21:34:21.395Z,101638.34
2018-06-30T21:36:49.756Z,101642.04
2018-06-30T21:39:18.147Z,101642.30
2018-06-30T21:41:46.519Z,101643.70
2018-06-30T21:44:14.924Z,101650.27
2018-06-30T21:46:43.256Z,101650.27
2018-06-30T21:49:11.652Z,101641.42
2018-06-30T21:51:39.995Z,101650.59
2018-06-30T21:54:09.336Z,101647.17
2018-06-30T21:56:37.741Z,101647.59
2018-06-30T21:59:06.076Z,101656.44
2018-06-30T22:01:34.439Z,101652.23
2018-06-30T22:04:02.807Z,101655.50
2018-06-30T22:06:31.128Z,101655.23
2018-06-30T22:08:59.472Z,101654.75
2018-06-30T22:11:27.893Z,101660.08
2018-06-30T22:13:56.282Z,101661.36
2018-06-30T22:16:24.624Z,101661.39
2018-06-30T22:18:52.969Z,101669.20
2018-06-30T22:21:21.314Z,101662.38
2018-06-30T22:23:49.651Z,101664.52
2018-06-30T22:26:18.066Z,101669.84
2018-06-30T22:28:46.419Z,101666.75
2018-06-30T22:31:17.620Z,101670.52
2018-06-30T22:33:45.999Z,101663.91
2018-06-30T22:36:14.417Z,101665.08
2018-06-30T22:38:42.776Z,101673.66
2018-06-30T22:41:11.152Z,101662.05
2018-06-30T22:43:39.532Z,101661.48
2018-06-30T22:46:08.058Z,101664.67
2018-06-30T22:48:36.382Z,101670.81
2018-06-30T22:51:04.723Z,101673.67
2018-06-30T22:53:33.057Z,101681.95
2018-06-30T22:56:01.407Z,101679.72
2018-06-30T22:58:30.289Z,101677.64
2018-06-30T23:00:58.604Z,101684.64
2018-06-30T23:03:26.950Z,101688.45
2018-06-30T23:05:55.295Z,101685.73
2018-06-30T23:08:23.717Z,101684.28
2018-06-30T23:10:52.124Z,101685.55
2018-06-30T23:13:20.466Z,101686.19
2018-06-30T23:15:48.815Z,101687.29
2018-06-30T23:18:17.217Z,101695.23
2018-06-30T23:20:45.567Z,101687.90
2018-06-30T23:23:13.993Z,101686.01
2018-06-30T23:25:42.516Z,101687.02
2018-06-30T23:28:10.950Z,101684.21
2018-06-30T23:30:39.459Z,101685.52
2018-06-30T23:33:07.943Z,101687.96
2018-06-30T23:35:36.297Z,101692.52
2018-06-30T23:38:04.906Z,101692.98
2018-06-30T23:40:33.374Z,101685.01
2018-06-30T23:43:01.707Z,101690.92
2018-06-30T23:45:30.056Z,101689.66
2018-06-30T23:47:58.540Z,101686.16
2018-06-30T23:50:26.940Z,101690.05
2018-06-30T23:52:55.288Z,101685.20
2018-06-30T23:55:23.642Z,101689.64
2018-06-30T23:57:52.024Z,101690.74
